Time;durP1;ratioP1;P1;durP2;ratioP2;P2;SDS_P1;SDS_P2;PMS_P1;PMS_P2;Temp;Humidity;BMP_temperature;BMP_pressure;BME280_temperature;BME280_humidity;BME280_pressure;Samples;Min_cycle;Max_cycle;Signal;HPM_P1;HPM_P2
2021/11/12 00:14:01;;;;;;;7.80;2.78;;;7.40;99.90;;;;;;25837536;23;20016;-58
2021/11/12 00:24:04;;;;;;;3.40;2.00;;;7.60;99.90;;;;;;25836405;23;20475;-58
2021/11/12 00:54:48;;;;;;;3.78;2.08;;;8.40;99.90;;;;;;25836662;23;20016;-57
2021/11/12 01:04:52;;;;;;;4.47;2.50;;;8.30;99.90;;;;;;25835115;23;20097;-57
2021/11/12 01:14:56;;;;;;;4.55;2.20;;;7.90;99.90;;;;;;25834801;23;20015;-54
2021/11/12 01:25:00;;;;;;;4.68;2.30;;;7.60;99.90;;;;;;25833707;23;20020;-59
2021/11/12 01:35:06;;;;;;;5.47;2.22;;;7.50;99.90;;;;;;25834358;23;20162;-53
2021/11/12 01:45:10;;;;;;;4.28;1.98;;;7.50;99.90;;;;;;25808402;23;20070;-58
2021/11/12 01:55:18;;;;;;;4.65;2.20;;;7.20;99.90;;;;;;25835394;23;20016;-58
2021/11/12 02:05:23;;;;;;;4.32;1.83;;;7.40;99.90;;;;;;25834444;23;20051;-53
2021/11/12 02:15:27;;;;;;;6.28;2.05;;;8.20;99.90;;;;;;25834222;23;20414;-59
2021/11/12 02:25:44;;;;;;;4.75;2.38;;;9.00;99.90;;;;;;25837502;23;20016;-58
2021/11/12 02:36:02;;;;;;;5.43;2.25;;;9.40;99.90;;;;;;25839992;23;20392;-58
2021/11/12 02:46:07;;;;;;;6.78;1.70;;;8.30;99.90;;;;;;25840687;23;20012;-56
2021/11/12 02:56:22;;;;;;;3.13;1.33;;;8.60;99.90;;;;;;25840540;23;20058;-57
2021/11/12 03:06:25;;;;;;;2.97;1.40;;;9.40;99.90;;;;;;25840817;23;20012;-58
2021/11/12 03:16:30;;;;;;;3.63;1.92;;;9.30;99.90;;;;;;25839924;23;20033;-58
2021/11/12 04:07:34;;;;;;;3.40;2.20;;;10.00;99.90;;;;;;25839668;23;20027;-58
2021/11/12 05:50:57;;;;;;;5.82;2.00;;;7.70;99.90;;;;;;25834178;23;20051;-56
2021/11/12 06:01:00;;;;;;;4.85;1.80;;;7.90;99.90;;;;;;25812835;23;20094;-57
2021/11/12 06:11:03;;;;;;;5.75;2.58;;;7.50;99.90;;;;;;25842240;23;20016;-58
2021/11/12 06:21:08;;;;;;;5.57;2.50;;;7.30;99.90;;;;;;25840772;22;20078;-55
2021/11/12 06:31:12;;;;;;;4.53;2.42;;;6.90;99.90;;;;;;25814854;23;20024;-55
2021/11/12 06:41:26;;;;;;;4.82;2.47;;;6.30;99.90;;;;;;25840470;23;20016;-54
2021/11/12 06:51:29;;;;;;;5.10;2.20;;;6.00;99.90;;;;;;25842528;23;20430;-58
2021/11/12 07:01:32;;;;;;;5.68;2.30;;;6.30;99.90;;;;;;25841178;23;20012;-54
2021/11/12 07:11:36;;;;;;;5.15;2.60;;;6.70;99.90;;;;;;25840727;23;20012;-57
2021/11/12 07:21:39;;;;;;;5.35;2.33;;;7.10;99.90;;;;;;25845899;23;20016;-54
2021/11/12 07:31:42;;;;;;;4.55;1.77;;;7.50;99.90;;;;;;25849261;23;20350;-58
2021/11/12 07:52:05;;;;;;;5.20;1.95;;;8.90;99.90;;;;;;25840686;23;20434;-59
2021/11/12 08:02:08;;;;;;;5.35;2.72;;;10.30;99.90;;;;;;25844053;23;20480;-59
2021/11/12 08:12:15;;;;;;;12.68;2.25;;;10.40;99.90;;;;;;25843526;23;20011;-58
2021/11/12 08:42:54;;;;;;;4.45;1.92;;;10.30;99.90;;;;;;25791272;23;20442;-60
2021/11/12 08:53:12;;;;;;;6.37;1.93;;;10.90;99.90;;;;;;25841805;23;20118;-58
2021/11/12 09:03:16;;;;;;;3.90;1.73;;;11.90;99.90;;;;;;25843137;23;20063;-58
2021/11/12 09:13:23;;;;;;;3.47;1.75;;;12.50;99.90;;;;;;25842630;23;20004;-60
2021/11/12 09:23:25;;;;;;;3.75;1.60;;;12.50;99.90;;;;;;25842416;23;20105;-60
2021/11/12 09:33:28;;;;;;;3.60;2.13;;;13.40;99.90;;;;;;25794797;23;20381;-56
2021/11/12 09:43:31;;;;;;;3.08;1.95;;;13.30;99.90;;;;;;25819591;23;20039;-58
2021/11/12 09:53:34;;;;;;;5.90;2.13;;;12.90;99.90;;;;;;25844363;23;20016;-60
2021/11/12 10:03:45;;;;;;;3.58;1.90;;;12.90;99.90;;;;;;25791104;23;20027;-60
2021/11/12 10:13:48;;;;;;;3.72;1.48;;;13.70;99.90;;;;;;25841330;23;20004;-58
2021/11/12 10:23:59;;;;;;;2.03;1.17;;;14.60;99.90;;;;;;25843105;23;20074;-60
2021/11/12 10:34:08;;;;;;;3.92;1.77;;;15.10;99.90;;;;;;25842782;23;20070;-60
2021/11/12 10:44:15;;;;;;;4.03;2.67;;;15.40;99.90;;;;;;25837083;23;20382;-59
2021/11/12 10:54:49;;;;;;;8.00;2.88;;;15.80;99.90;;;;;;25840400;23;20400;-58
2021/11/12 11:04:52;;;;;;;4.38;2.42;;;15.40;99.90;;;;;;25839456;23;20012;-55
2021/11/12 11:15:08;;;;;;;4.47;2.65;;;14.60;99.90;;;;;;25839141;23;20031;-59
2021/11/12 11:25:12;;;;;;;7.20;2.50;;;13.50;99.90;;;;;;25839205;23;20121;-54
2021/11/12 11:35:18;;;;;;;3.83;2.15;;;13.10;99.90;;;;;;25840019;23;20107;-59
2021/11/12 11:45:20;;;;;;;4.70;2.53;;;13.90;99.90;;;;;;25817666;23;20016;-56
2021/11/12 11:55:35;;;;;;;5.30;3.00;;;14.30;99.90;;;;;;25837189;23;20099;-54
2021/11/12 12:06:14;;;;;;;5.80;3.65;;;13.40;99.90;;;;;;25836933;23;20012;-55
2021/11/12 12:16:23;;;;;;;5.20;3.22;;;12.60;99.90;;;;;;25838698;23;20082;-59
2021/11/12 13:28:55;;;;;;;8.05;3.88;;;13.00;99.90;;;;;;25793608;23;20020;-57
2021/11/12 13:39:22;;;;;;;6.60;3.72;;;12.60;99.90;;;;;;25833248;23;20016;-53
2021/11/12 13:49:39;;;;;;;7.47;3.65;;;12.10;99.90;;;;;;25832923;23;20023;-53
2021/11/12 13:59:59;;;;;;;5.93;3.30;;;11.80;99.90;;;;;;25832760;23;20020;-55
2021/11/12 14:10:05;;;;;;;8.00;3.55;;;11.30;99.90;;;;;;25832542;23;20062;-56
2021/11/12 14:20:22;;;;;;;8.82;5.10;;;10.90;99.90;;;;;;25786929;22;20079;-57
2021/11/12 15:02:01;;;;;;;10.18;6.32;;;9.60;99.90;;;;;;25554490;22;20374;-57
2021/11/12 15:12:09;;;;;;;9.93;5.82;;;9.20;99.90;;;;;;25707001;23;20062;-54
2021/11/12 15:32:27;;;;;;;19.50;7.18;;;8.10;99.90;;;;;;25788672;23;20008;-55
2021/11/12 15:52:48;;;;;;;17.27;8.95;;;7.30;99.90;;;;;;25838038;23;20079;-55
2021/11/12 16:13:26;;;;;;;9.13;4.65;;;6.70;99.90;;;;;;25796361;23;20016;-56
2021/11/12 16:33:53;;;;;;;12.55;4.38;;;6.60;99.90;;;;;;25837440;23;20457;-56
2021/11/12 16:44:15;;;;;;;12.95;4.15;;;6.70;99.90;;;;;;25835605;23;20387;-54
2021/11/12 17:04:29;;;;;;;16.88;6.35;;;6.60;99.90;;;;;;25834894;23;20067;-56
2021/11/12 21:45:16;;;;;;;21.05;8.38;;;4.80;99.90;;;;;;25784371;23;20043;-57
2021/11/12 21:55:18;;;;;;;15.23;7.43;;;4.70;99.90;;;;;;25834227;23;20437;-59
2021/11/12 22:05:23;;;;;;;14.50;6.75;;;4.70;99.90;;;;;;25807998;23;20035;-58
2021/11/12 22:15:26;;;;;;;12.90;5.50;;;4.60;99.90;;;;;;25812554;23;20551;-61
2021/11/12 22:25:29;;;;;;;11.45;6.35;;;4.50;99.90;;;;;;25808949;23;20024;-61
2021/11/12 22:35:32;;;;;;;13.10;6.05;;;4.40;99.90;;;;;;25834958;23;20020;-60
2021/11/12 22:45:36;;;;;;;14.85;6.97;;;4.40;99.90;;;;;;25792720;23;20215;-59
2021/11/12 22:55:41;;;;;;;13.82;7.15;;;4.70;99.90;;;;;;25791384;23;20012;-61
2021/11/12 23:05:43;;;;;;;16.42;6.60;;;5.40;99.90;;;;;;25788695;23;20008;-61
2021/11/12 23:15:47;;;;;;;13.82;6.40;;;5.90;99.90;;;;;;25841839;23;20004;-60
2021/11/12 23:25:50;;;;;;;13.00;6.35;;;6.20;99.90;;;;;;25788664;23;20020;-60
2021/11/12 23:35:53;;;;;;;13.32;6.28;;;6.50;99.90;;;;;;25838464;23;20012;-61
2021/11/12 23:45:56;;;;;;;11.20;5.97;;;6.60;99.90;;;;;;25837454;23;20047;-59
2021/11/12 23:55:58;;;;;;;13.13;6.05;;;6.50;99.90;;;;;;25836400;23;20062;-60
